Time;durP1;ratioP1;P1;durP2;ratioP2;P2;SDS_P1;SDS_P2;PMS_P1;PMS_P2;Temp;Humidity;BMP_temperature;BMP_pressure;BME280_temperature;BME280_humidity;BME280_pressure;Samples;Min_cycle;Max_cycle;Signal;HPM_P1;HPM_P2
2022/12/26 00:01:24;;;;;;;14.88;12.30;;;;;;;9.91;100.00;100865.34;5093391;28;20040;-52
2022/12/26 00:03:52;;;;;;;16.15;12.38;;;;;;;9.89;100.00;100873.00;5093660;28;20064;-50
2022/12/26 00:06:22;;;;;;;14.73;12.45;;;;;;;9.89;100.00;100875.72;5092631;28;20123;-56
2022/12/26 00:08:50;;;;;;;14.95;12.60;;;;;;;9.88;100.00;100868.59;5092663;28;20036;-50
2022/12/26 00:11:18;;;;;;;16.73;12.98;;;;;;;9.87;100.00;100877.88;5092377;28;20040;-53
2022/12/26 00:13:46;;;;;;;15.75;12.90;;;;;;;9.88;100.00;100868.59;5090682;28;20040;-51
2022/12/26 00:16:17;;;;;;;15.20;12.30;;;;;;;9.87;100.00;100872.44;5093711;28;20043;-52
2022/12/26 00:18:45;;;;;;;15.23;12.25;;;;;;;9.88;100.00;100868.59;5091408;28;20063;-51
2022/12/26 00:21:14;;;;;;;15.10;13.00;;;;;;;9.87;100.00;100878.69;5102451;28;20501;-52
2022/12/26 00:23:42;;;;;;;16.05;13.23;;;;;;;9.88;100.00;100887.66;5084919;28;20516;-56
2022/12/26 00:26:12;;;;;;;16.13;13.90;;;;;;;9.88;100.00;100884.94;5092596;28;20035;-50
2022/12/26 00:28:40;;;;;;;17.27;14.52;;;;;;;9.88;100.00;100887.66;5093710;28;20051;-53
2022/12/26 00:31:13;;;;;;;17.00;14.02;;;;;;;9.87;100.00;100896.91;5093160;28;20044;-50
2022/12/26 00:33:41;;;;;;;18.80;15.60;;;;;;;9.88;100.00;100898.53;5093380;28;20051;-54
2022/12/26 00:36:15;;;;;;;19.75;15.65;;;;;;;9.88;100.00;100907.53;5093101;28;20039;-53
2022/12/26 00:38:43;;;;;;;19.52;16.38;;;;;;;9.87;100.00;100918.69;5087824;28;20072;-52
2022/12/26 00:41:13;;;;;;;18.90;15.75;;;;;;;9.88;100.00;100917.59;5092961;28;20040;-52
2022/12/26 00:43:41;;;;;;;18.30;15.18;;;;;;;9.87;100.00;100927.66;5092049;28;20036;-51
2022/12/26 00:46:09;;;;;;;17.90;15.65;;;;;;;9.87;100.00;100935.03;5091833;28;20044;-51
2022/12/26 00:48:37;;;;;;;16.77;14.43;;;;;;;9.88;100.00;100917.59;5092994;28;20036;-52
2022/12/26 00:51:05;;;;;;;18.02;15.98;;;;;;;9.88;100.00;100931.19;5091052;28;20062;-49
2022/12/26 00:53:33;;;;;;;18.50;16.48;;;;;;;9.87;100.00;100924.13;5091698;28;20066;-51
2022/12/26 00:56:01;;;;;;;17.10;15.05;;;;;;;9.87;100.00;100929.56;5091905;28;20494;-51
2022/12/26 00:58:29;;;;;;;19.25;16.02;;;;;;;9.86;100.00;100917.03;5091612;28;20090;-53
2022/12/26 01:01:08;;;;;;;17.48;15.57;;;;;;;9.86;100.00;100930.63;5091902;28;20129;-53
2022/12/26 01:03:36;;;;;;;18.88;16.02;;;;;;;9.86;100.00;100928.75;5092478;28;20043;-51
2022/12/26 01:06:04;;;;;;;21.08;16.90;;;;;;;9.88;100.00;100931.19;5093072;28;20094;-53
2022/12/26 01:08:32;;;;;;;17.95;15.55;;;;;;;9.88;100.00;100942.09;5091775;28;20160;-50
2022/12/26 01:11:06;;;;;;;19.58;17.15;;;;;;;9.88;100.00;100912.16;5093647;28;20044;-53
2022/12/26 01:13:34;;;;;;;17.92;15.57;;;;;;;9.90;100.00;100915.44;5092111;28;20035;-54
2022/12/26 01:16:03;;;;;;;18.38;15.82;;;;;;;9.87;100.00;100922.22;5095146;28;20044;-52
2022/12/26 01:18:32;;;;;;;19.13;17.02;;;;;;;9.86;100.00;100938.81;5094781;28;20036;-52
2022/12/26 01:21:02;;;;;;;19.52;16.17;;;;;;;9.84;100.00;100940.97;5097123;28;20050;-51
2022/12/26 01:23:30;;;;;;;18.30;16.20;;;;;;;9.84;100.00;100943.69;5096832;28;20135;-51
2022/12/26 01:25:58;;;;;;;17.95;16.02;;;;;;;9.84;100.00;100946.41;5097079;28;20139;-51
2022/12/26 01:28:50;;;;;;;17.52;15.23;;;;;;;9.86;100.00;100936.09;5083147;28;20032;-55
2022/12/26 01:31:19;;;;;;;17.98;15.95;;;;;;;9.84;100.00;100935.53;5091656;28;20047;-55
2022/12/26 01:33:47;;;;;;;17.83;15.73;;;;;;;9.84;100.00;100930.06;5078423;28;20055;-52
2022/12/26 01:36:16;;;;;;;20.75;16.63;;;;;;;9.83;100.00;100929.25;5096663;28;20055;-53
2022/12/26 01:38:44;;;;;;;17.75;15.85;;;;;;;9.82;100.00;100942.06;5093857;28;20492;-51
2022/12/26 01:41:20;;;;;;;17.40;15.52;;;;;;;9.82;100.00;100928.44;5095711;28;20166;-55
2022/12/26 01:43:56;;;;;;;18.23;16.17;;;;;;;9.84;100.00;100930.06;5095434;28;20399;-50
2022/12/26 01:46:28;;;;;;;18.20;16.30;;;;;;;9.84;100.00;100933.63;5082334;28;20040;-50
2022/12/26 01:48:59;;;;;;;18.92;16.92;;;;;;;9.85;100.00;100942.63;5090554;28;20056;-53
2022/12/26 01:51:32;;;;;;;18.73;16.65;;;;;;;9.85;100.00;100934.44;5095282;28;20064;-54
2022/12/26 01:54:01;;;;;;;19.80;17.23;;;;;;;9.85;100.00;100937.19;5066515;28;20696;-50
2022/12/26 01:56:49;;;;;;;18.58;16.58;;;;;;;9.84;100.00;100941.81;5096173;28;20058;-53
2022/12/26 01:59:25;;;;;;;19.40;15.30;;;;;;;9.84;100.00;100939.09;5077526;28;20047;-53
2022/12/26 02:01:53;;;;;;;18.88;16.73;;;;;;;9.83;100.00;100934.69;5097943;28;20505;-51
2022/12/26 02:07:33;;;;;;;18.17;15.18;;;;;;;9.84;100.00;100935.53;5061718;28;20039;-52
2022/12/26 02:10:00;;;;;;;16.98;14.70;;;;;;;9.82;100.00;100942.06;5093750;28;20402;-51
2022/12/26 02:12:30;;;;;;;17.67;14.82;;;;;;;9.85;100.00;100939.91;5095900;28;20042;-55
2022/12/26 02:15:06;;;;;;;;;;;;;;;9.85;100.00;100957.03;5094350;28;20080;-53
2022/12/26 02:17:34;;;;;;;17.02;14.60;;;;;;;9.84;100.00;100947.25;5095484;28;19969;-52
2022/12/26 02:20:26;;;;;;;16.48;13.95;;;;;;;9.84;100.00;100941.81;5094205;28;20040;-52
2022/12/26 02:23:16;;;;;;;16.25;13.73;;;;;;;9.85;100.00;100931.72;5094428;28;20044;-54
2022/12/26 02:25:54;;;;;;;18.40;14.65;;;;;;;9.85;100.00;100939.91;5095744;28;20044;-54
2022/12/26 02:28:41;;;;;;;17.95;14.45;;;;;;;9.85;100.00;100942.63;5095112;28;20109;-53
2022/12/26 02:31:38;;;;;;;16.08;14.35;;;;;;;9.83;100.00;100940.16;5094962;28;20047;-50
2022/12/26 02:34:15;;;;;;;15.68;12.93;;;;;;;9.84;100.00;100952.69;5095305;28;20486;-52
2022/12/26 02:36:51;;;;;;;17.60;13.48;;;;;;;9.87;100.00;100945.91;5083179;28;20044;-51
2022/12/26 02:39:27;;;;;;;18.60;14.95;;;;;;;9.85;100.00;100946.16;5095128;28;20044;-53
2022/12/26 02:42:42;;;;;;;18.52;15.13;;;;;;;9.85;100.00;100942.63;5095526;28;20517;-55
2022/12/26 02:48:42;;;;;;;14.13;11.88;;;;;;;9.86;100.00;100947.81;5095472;28;20051;-53
2022/12/26 03:14:49;;;;;;;14.30;10.63;;;;;;;9.85;100.00;100948.06;5081073;28;20506;-51
2022/12/26 03:17:34;;;;;;;11.60;10.00;;;;;;;9.87;100.00;100944.00;5095227;28;20040;-51
2022/12/26 03:20:11;;;;;;;11.55;9.75;;;;;;;9.85;100.00;100948.06;5093367;28;20040;-51
2022/12/26 03:22:39;;;;;;;11.60;9.63;;;;;;;9.84;100.00;100949.13;5094757;28;20044;-49
2022/12/26 03:27:58;;;;;;;7.32;5.40;;;;;;;9.86;100.00;100960.56;5093729;28;20040;-50
2022/12/26 03:35:59;;;;;;;9.75;7.50;;;;;;;9.88;100.00;100936.66;5094903;28;20202;-53
2022/12/26 03:38:37;;;;;;;8.90;6.82;;;;;;;9.91;100.00;100925.22;5093445;28;20036;-54
2022/12/26 04:20:36;;;;;;;4.45;3.47;;;;;;;9.87;100.00;100981.28;5078204;28;19923;-56
2022/12/26 04:46:21;;;;;;;8.20;4.22;;;;;;;9.80;100.00;100989.66;5087158;28;20368;-52
2022/12/26 04:51:37;;;;;;;5.45;3.80;;;;;;;9.80;100.00;100970.59;5092013;28;20048;-54
2022/12/26 04:54:05;;;;;;;4.47;3.35;;;;;;;9.79;100.00;100960.81;5092802;28;20032;-54
2022/12/26 04:56:33;;;;;;;4.35;2.65;;;;;;;9.81;100.00;100954.03;5090892;28;20036;-51
2022/12/26 04:59:01;;;;;;;5.38;3.55;;;;;;;9.85;100.00;100956.22;5092750;28;20044;-50
2022/12/26 05:09:54;;;;;;;5.10;3.50;;;;;;;9.71;100.00;100964.81;5091319;28;20495;-51
2022/12/26 05:12:21;;;;;;;4.22;3.25;;;;;;;9.68;100.00;100970.78;5063931;28;20044;-53
2022/12/26 05:14:49;;;;;;;4.75;3.30;;;;;;;9.68;100.00;100978.13;5092026;28;20118;-53
2022/12/26 05:28:42;;;;;;;4.68;3.35;;;;;;;9.64;100.00;100985.97;5092878;28;20131;-51
2022/12/26 05:31:14;;;;;;;5.10;3.25;;;;;;;9.63;100.00;100981.63;5090732;28;20123;-52
2022/12/26 05:36:31;;;;;;;5.63;3.50;;;;;;;9.62;100.00;100977.25;5092458;28;20097;-54
2022/12/26 05:39:00;;;;;;;5.88;3.80;;;;;;;9.59;100.00;100966.88;5091561;28;20040;-53
2022/12/26 05:41:28;;;;;;;7.07;4.20;;;;;;;9.58;100.00;100976.13;5089304;28;20067;-54
2022/12/26 05:43:56;;;;;;;4.80;3.30;;;;;;;9.70;100.00;100971.34;5092570;28;20091;-50
2022/12/26 05:46:23;;;;;;;4.75;3.58;;;;;;;9.68;100.00;100961.81;5091197;28;20040;-51
2022/12/26 05:48:51;;;;;;;4.32;3.30;;;;;;;9.67;100.00;100955.53;5074412;28;20104;-52
2022/12/26 05:51:19;;;;;;;6.05;4.05;;;;;;;9.67;100.00;100950.09;5091021;28;20094;-53
2022/12/26 05:53:47;;;;;;;9.23;3.30;;;;;;;9.64;100.00;100942.44;5091291;28;20371;-53
2022/12/26 05:56:16;;;;;;;4.72;3.30;;;;;;;9.62;100.00;100939.19;5093356;28;20468;-53
2022/12/26 05:58:44;;;;;;;5.85;3.75;;;;;;;9.65;100.00;100935.94;5095081;28;20425;-55
2022/12/26 06:01:18;;;;;;;5.32;3.35;;;;;;;9.62;100.00;100933.75;5094454;28;20190;-54
2022/12/26 06:03:54;;;;;;;4.45;3.50;;;;;;;9.62;100.00;100936.47;5077529;28;20406;-54
2022/12/26 06:06:23;;;;;;;4.93;3.53;;;;;;;9.61;100.00;100937.53;5089733;28;20506;-54
2022/12/26 06:08:52;;;;;;;6.57;3.70;;;;;;;9.60;100.00;100942.16;5093390;28;20424;-51
2022/12/26 06:11:20;;;;;;;5.80;3.60;;;;;;;9.56;100.00;100943.72;5093142;28;20047;-51
2022/12/26 06:13:48;;;;;;;4.60;3.20;;;;;;;9.57;100.00;100947.25;5095188;28;20529;-51
2022/12/26 06:16:17;;;;;;;5.78;3.70;;;;;;;9.57;100.00;100947.25;5095369;28;20040;-55
2022/12/26 06:18:45;;;;;;;5.40;2.97;;;;;;;9.64;100.00;100945.16;5095511;28;20032;-54
2022/12/26 06:21:15;;;;;;;5.40;3.60;;;;;;;9.79;100.00;100948.03;5104343;28;20032;-51
2022/12/26 06:23:43;;;;;;;5.25;3.70;;;;;;;9.74;100.00;100955.31;5087237;28;20044;-50
2022/12/26 06:26:11;;;;;;;6.63;3.45;;;;;;;9.68;100.00;100965.34;5110706;28;20051;-56
2022/12/26 06:28:40;;;;;;;5.38;3.65;;;;;;;9.62;100.00;100969.09;5095693;28;20044;-52
2022/12/26 06:31:14;;;;;;;7.03;3.60;;;;;;;9.70;100.00;100967.81;5085231;28;20048;-55
2022/12/26 06:33:42;;;;;;;4.57;3.03;;;;;;;9.80;100.00;100968.69;5096410;28;20036;-55
2022/12/26 06:36:13;;;;;;;6.70;3.40;;;;;;;9.78;100.00;100976.28;5098456;28;20046;-54
2022/12/26 06:38:41;;;;;;;5.25;2.85;;;;;;;9.74;100.00;100980.63;5096972;28;20044;-52
2022/12/26 06:41:10;;;;;;;4.82;3.30;;;;;;;9.73;100.00;100995.31;5076955;28;20123;-54
2022/12/26 06:43:38;;;;;;;4.13;2.60;;;;;;;9.72;100.00;100995.59;5095142;28;20497;-54
2022/12/26 06:46:06;;;;;;;2.88;2.58;;;;;;;9.72;100.00;100999.13;5095229;28;20043;-54
2022/12/26 06:48:38;;;;;;;5.47;2.67;;;;;;;9.67;100.00;100995.50;5095201;28;20490;-52
2022/12/26 06:51:10;;;;;;;3.80;3.13;;;;;;;9.69;100.00;101007.81;5093858;28;20048;-51
2022/12/26 06:53:37;;;;;;;3.70;2.72;;;;;;;9.66;100.00;101000.13;5094695;28;20478;-53
2022/12/26 06:56:11;;;;;;;5.38;3.05;;;;;;;9.67;100.00;100999.06;5095117;28;20036;-50
2022/12/26 06:58:39;;;;;;;6.68;2.97;;;;;;;9.70;100.00;101004.00;5110726;28;20031;-54
2022/12/26 07:01:18;;;;;;;3.92;2.40;;;;;;;9.68;100.00;100992.53;5091699;28;20044;-48
2022/12/26 07:03:47;;;;;;;6.25;2.92;;;;;;;9.64;100.00;100999.56;5093464;28;20499;-53
2022/12/26 07:06:35;;;;;;;4.68;2.92;;;;;;;9.59;100.00;100985.91;5093163;28;20486;-52
2022/12/26 07:09:08;;;;;;;3.53;2.20;;;;;;;9.64;100.00;100980.53;5092527;28;20033;-48
2022/12/26 07:11:37;;;;;;;2.95;2.25;;;;;;;9.65;100.00;100995.78;5093372;28;20489;-49
2022/12/26 07:14:06;;;;;;;5.95;2.70;;;;;;;9.62;100.00;100990.88;5094375;28;20508;-52
2022/12/26 07:16:34;;;;;;;4.53;2.47;;;;;;;9.76;100.00;101008.38;5093104;28;20036;-50
2022/12/26 07:19:03;;;;;;;5.75;2.45;;;;;;;9.78;100.00;101014.41;5091418;28;20037;-50
2022/12/26 07:21:30;;;;;;;4.15;2.60;;;;;;;9.69;100.00;101010.53;5074101;28;20048;-49
2022/12/26 07:24:11;;;;;;;4.53;2.67;;;;;;;9.65;100.00;101006.66;5090230;28;20064;-49
2022/12/26 07:26:39;;;;;;;4.93;2.58;;;;;;;9.59;100.00;101004.97;5093635;28;20052;-51
2022/12/26 07:29:08;;;;;;;4.88;2.67;;;;;;;9.55;100.00;101004.66;5094566;28;20502;-50
2022/12/26 07:31:35;;;;;;;4.75;2.80;;;;;;;9.46;100.00;101011.63;5092383;28;20051;-58
2022/12/26 07:34:04;;;;;;;7.30;3.08;;;;;;;9.37;100.00;101019.41;5092956;28;20048;-53
2022/12/26 07:36:32;;;;;;;5.80;2.97;;;;;;;9.33;100.00;101018.31;5094086;28;20428;-54
2022/12/26 07:38:59;;;;;;;7.38;2.80;;;;;;;9.30;100.00;101024.22;5093032;28;20051;-55
2022/12/26 07:44:15;;;;;;;6.70;2.95;;;;;;;9.25;100.00;101016.03;5093186;28;20126;-58
2022/12/26 07:46:45;;;;;;;7.60;2.88;;;;;;;9.26;100.00;101022.28;5092902;28;20054;-55
2022/12/26 07:49:13;;;;;;;4.60;2.47;;;;;;;9.31;100.00;101031.34;5092686;28;20498;-55
2022/12/26 07:51:41;;;;;;;7.32;3.00;;;;;;;9.32;100.00;101027.53;5066825;28;20048;-57
2022/12/26 07:54:09;;;;;;;3.42;2.20;;;;;;;9.46;100.00;101021.69;5092259;28;20043;-54
2022/12/26 07:56:39;;;;;;;8.68;3.13;;;;;;;9.53;100.00;101014.97;5093399;28;20031;-56
2022/12/26 07:59:10;;;;;;;4.03;2.30;;;;;;;9.58;100.00;101015.03;5093618;28;20105;-57
2022/12/26 08:01:38;;;;;;;5.53;2.38;;;;;;;9.57;100.00;101020.72;5092367;28;20046;-55
2022/12/26 08:04:06;;;;;;;4.50;2.22;;;;;;;9.54;100.00;101019.31;5092990;28;20462;-56
2022/12/26 08:06:33;;;;;;;4.38;2.10;;;;;;;9.63;100.00;101033.31;5092376;28;20085;-56
2022/12/26 08:09:01;;;;;;;4.60;2.50;;;;;;;9.65;100.00;101033.88;5096004;28;20383;-57
2022/12/26 08:11:32;;;;;;;4.97;2.30;;;;;;;9.61;100.00;101030.00;5092909;28;20048;-54
2022/12/26 08:14:00;;;;;;;4.82;2.20;;;;;;;9.63;100.00;101033.31;5091457;28;20126;-55
2022/12/26 08:16:28;;;;;;;4.20;2.40;;;;;;;9.57;100.00;101037.03;5092120;28;20047;-59
2022/12/26 08:18:55;;;;;;;5.78;3.10;;;;;;;9.92;100.00;101030.31;5090482;28;20051;-57
2022/12/26 08:21:23;;;;;;;6.18;2.63;;;;;;;9.78;100.00;101032.63;5080693;28;20040;-56
2022/12/26 08:23:51;;;;;;;5.68;2.33;;;;;;;9.64;100.00;101034.13;5092814;28;20048;-53
2022/12/26 08:26:22;;;;;;;8.52;2.85;;;;;;;9.48;100.00;101025.00;5078632;28;20036;-57
2022/12/26 08:28:50;;;;;;;8.48;2.63;;;;;;;9.37;100.00;101026.75;5092172;28;20544;-57
2022/12/26 08:31:19;;;;;;;6.40;2.83;;;;;;;9.32;100.00;101038.41;5091410;28;20043;-55
2022/12/26 08:33:48;;;;;;;6.25;2.70;;;;;;;9.33;100.00;101025.63;5092977;28;20046;-56
2022/12/26 08:36:17;;;;;;;9.38;2.97;;;;;;;9.30;100.00;101029.66;5091756;28;20546;-57
2022/12/26 08:38:45;;;;;;;7.88;3.05;;;;;;;9.31;100.00;101035.97;5093076;28;20074;-53
2022/12/26 08:41:13;;;;;;;6.20;2.60;;;;;;;9.28;100.00;101031.81;5091524;28;20050;-56
2022/12/26 08:43:40;;;;;;;5.22;2.30;;;;;;;9.35;100.00;101032.44;5093256;28;20028;-55
2022/12/26 08:46:28;;;;;;;4.63;2.63;;;;;;;9.45;100.00;101039.91;5091557;28;20487;-56
2022/12/26 08:48:56;;;;;;;5.75;2.13;;;;;;;9.65;100.00;101036.59;5093008;28;20044;-55
2022/12/26 08:51:24;;;;;;;8.25;2.40;;;;;;;9.73;100.00;101038.03;5092428;28;20040;-53
2022/12/26 08:53:54;;;;;;;7.78;2.70;;;;;;;9.84;100.00;101055.25;5074921;28;20055;-55
2022/12/26 08:56:24;;;;;;;8.70;2.95;;;;;;;9.85;100.00;101046.84;5091781;28;20044;-55
2022/12/26 08:58:52;;;;;;;8.93;2.65;;;;;;;9.79;100.00;101059.59;5091897;28;20395;-54
2022/12/26 09:01:22;;;;;;;5.85;2.50;;;;;;;10.01;100.00;101050.53;5092384;28;20047;-56
2022/12/26 09:03:59;;;;;;;7.00;2.58;;;;;;;10.01;100.00;101050.53;5084675;28;20036;-57
2022/12/26 09:06:30;;;;;;;6.00;2.72;;;;;;;10.30;100.00;101058.44;5086769;28;20067;-50
2022/12/26 09:08:59;;;;;;;8.27;2.80;;;;;;;10.09;100.00;101066.41;5092353;28;20135;-52
2022/12/26 09:11:27;;;;;;;5.32;2.20;;;;;;;10.14;100.00;101066.44;5092708;28;20054;-49
2022/12/26 09:13:57;;;;;;;7.47;2.67;;;;;;;10.00;100.00;101071.47;5081240;28;20642;-50
2022/12/26 09:16:30;;;;;;;10.98;3.40;;;;;;;10.09;100.00;101074.56;5091945;28;20375;-54
2022/12/26 09:19:05;;;;;;;7.85;3.20;;;;;;;9.93;100.00;101065.44;5077166;28;20044;-56
2022/12/26 09:21:33;;;;;;;11.30;3.03;;;;;;;10.02;100.00;101068.50;5088566;28;20129;-53
2022/12/26 09:24:03;;;;;;;9.75;3.17;;;;;;;10.08;100.00;101074.81;5092790;28;20040;-54
2022/12/26 09:26:31;;;;;;;6.80;2.95;;;;;;;10.00;100.00;101070.66;5092467;28;20037;-50
2022/12/26 09:28:59;;;;;;;12.40;3.55;;;;;;;9.98;100.00;101081.81;5089264;28;20050;-51
2022/12/26 09:31:30;;;;;;;14.13;4.38;;;;;;;9.93;100.00;101080.94;5084778;28;20553;-58
2022/12/26 09:33:57;;;;;;;8.50;3.50;;;;;;;10.00;100.00;101093.25;5095356;28;20044;-60
2022/12/26 09:36:30;;;;;;;8.52;3.08;;;;;;;10.03;100.00;101081.06;5096910;28;20038;-56
2022/12/26 09:38:58;;;;;;;7.13;2.40;;;;;;;9.97;100.00;101101.13;5094648;28;20546;-57
2022/12/26 09:41:46;;;;;;;14.82;4.55;;;;;;;9.98;100.00;101091.88;5096271;28;20043;-55
2022/12/26 09:44:23;;;;;;;7.60;2.15;;;;;;;9.92;100.00;101103.81;5096157;28;20040;-56
2022/12/26 09:47:14;;;;;;;13.40;4.07;;;;;;;9.96;100.00;101097.59;5096489;28;20043;-55
2022/12/26 09:50:21;;;;;;;6.50;2.88;;;;;;;9.98;100.00;101102.75;5085906;28;20051;-54
2022/12/26 09:52:53;;;;;;;13.05;3.05;;;;;;;9.95;100.00;101111.44;5094798;28;20139;-55
2022/12/26 09:55:36;;;;;;;7.07;2.47;;;;;;;9.97;100.00;101109.28;5096743;28;20036;-54
2022/12/26 09:58:27;;;;;;;9.90;3.63;;;;;;;9.87;100.00;101114.63;5094892;28;20509;-50
2022/12/26 10:01:20;;;;;;;7.88;2.30;;;;;;;9.80;100.00;101109.41;5094876;28;20109;-51
2022/12/26 10:03:55;;;;;;;8.60;2.67;;;;;;;9.75;100.00;101112.88;5094860;28;20510;-51
2022/12/26 10:06:30;;;;;;;5.57;2.25;;;;;;;9.74;100.00;101115.84;5094670;28;20044;-51
2022/12/26 10:09:20;;;;;;;16.50;5.13;;;;;;;9.88;100.00;101116.28;5094682;28;20043;-50
2022/12/26 10:11:52;;;;;;;12.55;4.68;;;;;;;9.99;100.00;101118.03;5093891;28;20488;-51
2022/12/26 10:14:45;;;;;;;8.20;2.70;;;;;;;9.91;100.00;101122.03;5096166;28;20048;-48
2022/12/26 10:17:21;;;;;;;7.88;3.15;;;;;;;9.91;100.00;101132.09;5092624;28;20040;-51
2022/12/26 10:20:27;;;;;;;9.10;3.00;;;;;;;9.90;100.00;101130.44;5086918;28;20445;-52
2022/12/26 10:23:14;;;;;;;12.95;3.10;;;;;;;9.91;100.00;101126.63;5065968;28;20047;-50
2022/12/26 10:25:54;;;;;;;8.27;2.90;;;;;;;9.91;100.00;101138.38;5077452;28;20032;-50
2022/12/26 10:28:32;;;;;;;14.82;4.55;;;;;;;9.94;100.00;101142.47;5074164;28;20098;-53
2022/12/26 10:31:04;;;;;;;6.78;2.78;;;;;;;9.84;100.00;101188.59;5091333;28;20036;-50
2022/12/26 10:34:01;;;;;;;7.07;2.45;;;;;;;9.65;100.00;101210.72;5095117;28;20043;-49
2022/12/26 10:36:38;;;;;;;6.43;2.00;;;;;;;9.39;100.00;101213.06;5095470;28;20122;-50
2022/12/26 10:39:16;;;;;;;6.18;2.17;;;;;;;9.23;100.00;101205.75;5093262;28;20062;-48
2022/12/26 10:41:48;;;;;;;7.40;2.67;;;;;;;9.12;100.00;101206.72;5080873;28;20040;-52
2022/12/26 10:44:16;;;;;;;10.82;2.80;;;;;;;9.06;100.00;101218.56;5094202;28;20051;-51
2022/12/26 10:47:21;;;;;;;8.73;2.78;;;;;;;9.02;100.00;101211.97;5077919;28;20394;-51
2022/12/26 10:49:49;;;;;;;8.65;3.00;;;;;;;9.02;100.00;101206.53;5092750;28;20059;-50
2022/12/26 10:52:19;;;;;;;10.45;3.30;;;;;;;8.99;100.00;101213.28;5092335;28;20054;-51
2022/12/26 10:54:54;;;;;;;13.90;3.30;;;;;;;8.99;100.00;101207.03;5095333;28;20087;-51
2022/12/26 10:57:44;;;;;;;10.80;3.03;;;;;;;8.98;100.00;101208.94;5094046;28;20089;-52
2022/12/26 11:00:19;;;;;;;13.05;3.53;;;;;;;8.99;100.00;101220.63;5093849;28;20046;-52
2022/12/26 11:03:04;;;;;;;10.23;3.35;;;;;;;8.96;100.00;101230.91;5092610;28;20482;-51
2022/12/26 11:05:34;;;;;;;11.07;3.27;;;;;;;8.92;100.00;101227.06;5095284;28;20128;-53
2022/12/26 11:08:29;;;;;;;13.50;3.30;;;;;;;8.89;100.00;101240.31;5093559;28;20504;-51
2022/12/26 11:11:04;;;;;;;13.23;3.60;;;;;;;8.86;100.00;101246.25;5095977;28;20046;-52
2022/12/26 11:13:38;;;;;;;18.77;6.28;;;;;;;8.85;100.00;101250.84;5091270;28;20509;-52
2022/12/26 11:16:07;;;;;;;16.20;3.60;;;;;;;8.86;100.00;101246.25;5094322;28;20040;-51
2022/12/26 11:18:38;;;;;;;17.73;5.20;;;;;;;8.88;100.00;101253.06;5094560;28;20105;-53
2022/12/26 11:21:17;;;;;;;11.55;3.72;;;;;;;8.88;100.00;101263.94;5093467;28;20060;-51
2022/12/26 11:23:47;;;;;;;18.27;3.95;;;;;;;8.86;100.00;101273.41;5092434;28;20055;-51
2022/12/26 11:26:28;;;;;;;10.35;3.17;;;;;;;8.79;100.00;101278.19;5093201;28;20043;-52
2022/12/26 11:29:06;;;;;;;11.73;3.40;;;;;;;8.76;100.00;101284.94;5093513;28;20089;-52
2022/12/26 11:31:34;;;;;;;17.63;3.92;;;;;;;8.70;100.00;101284.00;5081490;28;20040;-52
2022/12/26 11:34:07;;;;;;;15.07;4.15;;;;;;;8.67;100.00;101284.50;5091999;28;20109;-51
2022/12/26 11:36:36;;;;;;;20.80;4.07;;;;;;;8.57;100.00;101291.63;5109763;28;20036;-50
2022/12/26 11:39:19;;;;;;;16.35;4.32;;;;;;;8.45;100.00;101297.94;5094151;28;20524;-49
2022/12/26 11:41:48;;;;;;;19.85;4.25;;;;;;;8.41;100.00;101299.47;5081418;28;20119;-50
2022/12/26 11:44:22;;;;;;;16.48;4.15;;;;;;;8.43;100.00;101302.78;5092331;28;20060;-50
2022/12/26 11:47:08;;;;;;;13.18;3.60;;;;;;;8.50;100.00;101308.91;5092703;28;20033;-50
2022/12/26 11:49:38;;;;;;;16.08;3.85;;;;;;;8.52;100.00;101301.34;5093277;28;20040;-51
2022/12/26 11:52:41;;;;;;;11.73;3.28;;;;;;;8.50;100.00;101314.31;5093966;28;20032;-49
2022/12/26 11:55:29;;;;;;;12.82;3.78;;;;;;;8.47;100.00;101314.81;5084889;28;20402;-53
2022/12/26 11:58:08;;;;;;;12.80;3.50;;;;;;;8.41;100.00;101321.19;5092606;28;20044;-52
2022/12/26 12:00:41;;;;;;;11.88;3.30;;;;;;;8.39;100.00;101326.00;5093428;28;20056;-51
2022/12/26 12:03:35;;;;;;;13.90;3.50;;;;;;;8.36;100.00;101329.22;5093318;28;20040;-52
2022/12/26 12:06:40;;;;;;;15.63;3.90;;;;;;;8.36;100.00;101333.81;5108536;28;20048;-52
2022/12/26 12:09:23;;;;;;;16.92;4.07;;;;;;;8.38;100.00;101326.28;5091386;28;20052;-48
2022/12/26 12:12:03;;;;;;;15.73;4.00;;;;;;;8.36;100.00;101334.66;5093527;28;20044;-49
2022/12/26 12:15:08;;;;;;;11.25;3.50;;;;;;;8.38;100.00;101337.94;5094910;28;20090;-54
2022/12/26 12:17:43;;;;;;;;;;;;;;;8.33;100.00;101341.38;5052287;28;20041;-50
2022/12/26 12:20:19;;;;;;;14.73;4.03;;;;;;;8.23;100.00;101352.03;5085098;28;19920;-49
2022/12/26 12:22:53;;;;;;;;;;;;;;;8.20;100.00;101357.97;5088420;28;20036;-50
2022/12/26 12:25:26;;;;;;;13.43;3.70;;;;;;;8.24;100.00;101350.97;5093335;28;19920;-49
2022/12/26 12:28:33;;;;;;;12.70;3.40;;;;;;;8.19;100.00;101344.63;5093780;28;20050;-50
2022/12/26 12:31:38;;;;;;;16.58;3.90;;;;;;;8.13;100.00;101346.41;5092239;28;20508;-52
2022/12/26 12:34:27;;;;;;;;;;;;;;;8.10;100.00;101342.28;5094457;28;20070;-52
2022/12/26 12:36:58;;;;;;;17.52;3.75;;;;;;;8.09;100.00;101346.03;5080238;28;20364;-51
2022/12/26 12:39:38;;;;;;;13.38;3.53;;;;;;;8.06;100.00;101356.56;5093185;28;20123;-50
2022/12/26 12:42:17;;;;;;;14.68;3.45;;;;;;;8.13;100.00;101350.97;5092806;28;20044;-53
2022/12/26 12:45:02;;;;;;;14.23;3.60;;;;;;;8.16;100.00;101361.38;5092869;28;20040;-50
2022/12/26 12:47:36;;;;;;;13.07;3.55;;;;;;;8.17;100.00;101352.16;5092636;28;20040;-49
2022/12/26 12:50:32;;;;;;;10.63;3.13;;;;;;;8.11;100.00;101353.94;5093340;28;20520;-53
2022/12/26 12:53:41;;;;;;;17.08;3.40;;;;;;;8.10;100.00;101358.56;5093807;28;20058;-49
2022/12/26 12:56:36;;;;;;;13.15;2.80;;;;;;;8.13;100.00;101361.84;5034006;28;20531;-48
2022/12/26 12:59:17;;;;;;;11.75;3.00;;;;;;;8.16;100.00;101361.38;5035468;28;20044;-51
2022/12/26 13:01:51;;;;;;;12.77;2.97;;;;;;;8.19;100.00;101366.31;5088789;28;20051;-51
2022/12/26 13:04:26;;;;;;;11.93;2.97;;;;;;;8.21;100.00;101375.06;5092626;28;20490;-54
2022/12/26 13:06:57;;;;;;;14.52;3.78;;;;;;;8.20;100.00;101376.09;5092445;28;20040;-51
2022/12/26 13:09:41;;;;;;;12.10;2.72;;;;;;;8.14;100.00;101374.38;5091547;28;20032;-51
2022/12/26 13:12:15;;;;;;;17.00;3.90;;;;;;;8.17;100.00;101376.59;5091719;28;20036;-51
2022/12/26 13:15:00;;;;;;;16.92;3.47;;;;;;;8.19;100.00;101377.19;5092871;28;20040;-51
2022/12/26 13:17:34;;;;;;;10.82;3.35;;;;;;;8.16;98.53;101388.53;5091801;28;20127;-51
2022/12/26 13:20:18;;;;;;;11.15;3.53;;;;;;;8.11;96.67;101387.34;5082365;28;20653;-50
2022/12/26 13:25:48;;;;;;;12.25;2.97;;;;;;;8.01;93.95;101388.97;5100792;28;20040;-51
2022/12/26 13:28:21;;;;;;;9.18;2.42;;;;;;;7.96;93.52;101389.72;5091212;28;20439;-50
2022/12/26 13:30:55;;;;;;;12.00;3.08;;;;;;;7.92;93.63;101391.25;5092896;28;20063;-50
2022/12/26 13:33:23;;;;;;;9.23;2.40;;;;;;;7.89;92.70;101391.72;5092829;28;20045;-51
2022/12/26 13:36:04;;;;;;;10.77;2.97;;;;;;;7.89;93.21;101389.84;5092505;28;20388;-48
2022/12/26 13:38:50;;;;;;;13.48;3.20;;;;;;;7.91;93.41;101397.72;5092638;28;20123;-52
2022/12/26 13:44:23;;;;;;;;;;;;;;;7.91;93.94;101419.44;5094947;28;20039;-51
2022/12/26 13:46:56;;;;;;;10.77;2.60;;;;;;;7.87;92.83;101421.81;5091622;28;19920;-51
2022/12/26 13:49:29;;;;;;;10.65;3.10;;;;;;;7.78;92.63;101422.38;5094725;28;20048;-53
2022/12/26 13:52:21;;;;;;;8.70;2.50;;;;;;;7.75;92.24;101422.84;5081138;28;20040;-51
2022/12/26 13:54:49;;;;;;;11.45;2.50;;;;;;;7.77;93.34;101423.44;5093223;28;20071;-52
2022/12/26 13:57:40;;;;;;;8.70;2.13;;;;;;;7.75;92.47;101428.28;5092711;28;20131;-51
2022/12/26 14:00:22;;;;;;;8.13;2.50;;;;;;;7.69;91.82;101438.97;5090646;28;20036;-53
2022/12/26 14:03:35;;;;;;;7.45;2.72;;;;;;;7.69;92.09;101438.97;5091479;28;20036;-50
2022/12/26 14:06:37;;;;;;;7.57;2.20;;;;;;;7.71;93.03;101441.47;5022110;28;20056;-53
2022/12/26 14:09:42;;;;;;;8.82;2.28;;;;;;;7.75;91.22;101436.41;5091371;28;20401;-50
2022/12/26 14:12:09;;;;;;;8.02;2.33;;;;;;;7.73;90.86;101444.78;5106217;28;20040;-50